sensor_id;sensor_type;location;lat;lon;timestamp;temperature;humidity
23475;DHT22;11910;52.086;21.066;2023-05-10T00:00:44;8.40;75.10
23475;DHT22;11910;52.086;21.066;2023-05-10T00:03:09;8.50;75.80
23475;DHT22;11910;52.086;21.066;2023-05-10T00:05:35;8.40;76.70
23475;DHT22;11910;52.086;21.066;2023-05-10T00:08:01;8.40;77.50
23475;DHT22;11910;52.086;21.066;2023-05-10T00:10:27;8.30;77.60
23475;DHT22;11910;52.086;21.066;2023-05-10T00:12:52;8.30;78.60
23475;DHT22;11910;52.086;21.066;2023-05-10T00:15:18;8.20;79.20
23475;DHT22;11910;52.086;21.066;2023-05-10T00:17:44;8.20;78.40
23475;DHT22;11910;52.086;21.066;2023-05-10T00:20:10;8.20;78.00
23475;DHT22;11910;52.086;21.066;2023-05-10T00:22:35;8.20;76.90
23475;DHT22;11910;52.086;21.066;2023-05-10T00:25:01;8.20;76.60
23475;DHT22;11910;52.086;21.066;2023-05-10T00:27:27;8.20;78.00
23475;DHT22;11910;52.086;21.066;2023-05-10T00:29:52;8.20;76.50
23475;DHT22;11910;52.086;21.066;2023-05-10T00:32:18;8.20;75.00
23475;DHT22;11910;52.086;21.066;2023-05-10T00:34:43;8.10;76.00
23475;DHT22;11910;52.086;21.066;2023-05-10T00:37:09;8.10;75.50
23475;DHT22;11910;52.086;21.066;2023-05-10T00:39:34;8.00;75.90
23475;DHT22;11910;52.086;21.066;2023-05-10T00:42:00;8.00;77.60
23475;DHT22;11910;52.086;21.066;2023-05-10T00:44:26;8.00;77.90
23475;DHT22;11910;52.086;21.066;2023-05-10T00:46:51;8.00;76.40
23475;DHT22;11910;52.086;21.066;2023-05-10T00:49:17;8.00;76.60
23475;DHT22;11910;52.086;21.066;2023-05-10T00:51:43;7.90;76.90
23475;DHT22;11910;52.086;21.066;2023-05-10T00:54:12;7.90;77.70
23475;DHT22;11910;52.086;21.066;2023-05-10T00:56:39;7.90;78.10
23475;DHT22;11910;52.086;21.066;2023-05-10T00:59:05;7.80;77.70
23475;DHT22;11910;52.086;21.066;2023-05-10T01:01:32;7.80;77.50
23475;DHT22;11910;52.086;21.066;2023-05-10T01:03:58;7.80;78.10
23475;DHT22;11910;52.086;21.066;2023-05-10T01:06:23;7.80;78.10
23475;DHT22;11910;52.086;21.066;2023-05-10T01:08:49;7.80;78.30
23475;DHT22;11910;52.086;21.066;2023-05-10T01:11:15;7.80;77.90
23475;DHT22;11910;52.086;21.066;2023-05-10T01:13:42;7.70;78.40
23475;DHT22;11910;52.086;21.066;2023-05-10T01:16:08;7.70;78.60
23475;DHT22;11910;52.086;21.066;2023-05-10T01:18:37;7.70;78.40
23475;DHT22;11910;52.086;21.066;2023-05-10T01:26:45;7.60;80.20
23475;DHT22;11910;52.086;21.066;2023-05-10T01:29:35;7.50;80.40
23475;DHT22;11910;52.086;21.066;2023-05-10T01:32:16;7.30;81.70
23475;DHT22;11910;52.086;21.066;2023-05-10T01:34:54;7.30;81.00
23475;DHT22;11910;52.086;21.066;2023-05-10T01:37:31;7.40;79.20
23475;DHT22;11910;52.086;21.066;2023-05-10T01:40:08;7.40;79.80
23475;DHT22;11910;52.086;21.066;2023-05-10T01:42:42;7.30;81.00
23475;DHT22;11910;52.086;21.066;2023-05-10T01:45:24;7.30;81.50
23475;DHT22;11910;52.086;21.066;2023-05-10T01:48:02;7.20;80.90
23475;DHT22;11910;52.086;21.066;2023-05-10T01:50:30;7.30;80.40
23475;DHT22;11910;52.086;21.066;2023-05-10T01:52:58;7.20;81.60
23475;DHT22;11910;52.086;21.066;2023-05-10T01:55:27;7.10;82.60
23475;DHT22;11910;52.086;21.066;2023-05-10T01:58:01;7.10;80.50
23475;DHT22;11910;52.086;21.066;2023-05-10T02:00:29;7.00;80.80
23475;DHT22;11910;52.086;21.066;2023-05-10T02:02:55;7.00;81.40
23475;DHT22;11910;52.086;21.066;2023-05-10T02:05:22;7.10;80.80
23475;DHT22;11910;52.086;21.066;2023-05-10T02:07:49;7.10;80.80
23475;DHT22;11910;52.086;21.066;2023-05-10T02:10:15;7.00;81.30
23475;DHT22;11910;52.086;21.066;2023-05-10T02:12:45;6.90;82.20
23475;DHT22;11910;52.086;21.066;2023-05-10T02:15:14;7.00;81.90
23475;DHT22;11910;52.086;21.066;2023-05-10T02:17:42;7.10;80.80
23475;DHT22;11910;52.086;21.066;2023-05-10T02:20:10;7.10;81.00
23475;DHT22;11910;52.086;21.066;2023-05-10T02:22:39;6.80;82.50
23475;DHT22;11910;52.086;21.066;2023-05-10T02:25:07;6.80;82.10
23475;DHT22;11910;52.086;21.066;2023-05-10T02:27:33;6.80;81.90
23475;DHT22;11910;52.086;21.066;2023-05-10T02:30:00;6.80;81.80
23475;DHT22;11910;52.086;21.066;2023-05-10T02:32:27;6.90;82.20
23475;DHT22;11910;52.086;21.066;2023-05-10T02:34:53;6.90;81.40
23475;DHT22;11910;52.086;21.066;2023-05-10T02:37:20;7.00;81.40
23475;DHT22;11910;52.086;21.066;2023-05-10T02:39:50;7.00;80.20
23475;DHT22;11910;52.086;21.066;2023-05-10T02:42:19;7.10;80.40
23475;DHT22;11910;52.086;21.066;2023-05-10T02:44:48;7.10;79.40
23475;DHT22;11910;52.086;21.066;2023-05-10T02:47:14;7.10;79.00
23475;DHT22;11910;52.086;21.066;2023-05-10T02:49:40;6.90;79.90
23475;DHT22;11910;52.086;21.066;2023-05-10T02:52:06;6.80;81.00
23475;DHT22;11910;52.086;21.066;2023-05-10T02:54:41;6.70;80.60
23475;DHT22;11910;52.086;21.066;2023-05-10T02:57:09;6.70;81.40
23475;DHT22;11910;52.086;21.066;2023-05-10T02:59:36;6.70;81.00
23475;DHT22;11910;52.086;21.066;2023-05-10T03:02:03;6.80;80.70
23475;DHT22;11910;52.086;21.066;2023-05-10T03:04:29;6.90;80.10
23475;DHT22;11910;52.086;21.066;2023-05-10T03:06:56;6.70;81.00
23475;DHT22;11910;52.086;21.066;2023-05-10T03:09:21;6.60;81.20
23475;DHT22;11910;52.086;21.066;2023-05-10T03:11:50;6.60;82.10
23475;DHT22;11910;52.086;21.066;2023-05-10T03:15:07;6.70;81.60
23475;DHT22;11910;52.086;21.066;2023-05-10T03:17:20;6.70;82.20
23475;DHT22;11910;52.086;21.066;2023-05-10T03:19:55;6.60;82.60
23475;DHT22;11910;52.086;21.066;2023-05-10T03:22:34;6.50;83.20
23475;DHT22;11910;52.086;21.066;2023-05-10T03:25:05;6.40;83.90
23475;DHT22;11910;52.086;21.066;2023-05-10T03:27:32;6.50;83.40
23475;DHT22;11910;52.086;21.066;2023-05-10T03:29:59;6.60;82.30
23475;DHT22;11910;52.086;21.066;2023-05-10T03:32:26;6.60;83.20
23475;DHT22;11910;52.086;21.066;2023-05-10T03:34:54;6.60;83.30
23475;DHT22;11910;52.086;21.066;2023-05-10T03:37:19;6.70;83.50
23475;DHT22;11910;52.086;21.066;2023-05-10T03:39:45;6.70;83.80
23475;DHT22;11910;52.086;21.066;2023-05-10T03:42:10;6.70;84.20
23475;DHT22;11910;52.086;21.066;2023-05-10T03:44:38;6.70;84.90
23475;DHT22;11910;52.086;21.066;2023-05-10T03:47:04;6.80;85.20
23475;DHT22;11910;52.086;21.066;2023-05-10T03:49:30;6.90;84.80
23475;DHT22;11910;52.086;21.066;2023-05-10T03:51:55;6.90;85.00
23475;DHT22;11910;52.086;21.066;2023-05-10T03:54:21;6.80;86.20
23475;DHT22;11910;52.086;21.066;2023-05-10T03:56:46;6.80;86.90
23475;DHT22;11910;52.086;21.066;2023-05-10T03:59:13;6.90;89.30
23475;DHT22;11910;52.086;21.066;2023-05-10T04:01:39;6.90;88.70
23475;DHT22;11910;52.086;21.066;2023-05-10T04:04:04;6.90;89.40
23475;DHT22;11910;52.086;21.066;2023-05-10T04:06:30;6.90;90.10
23475;DHT22;11910;52.086;21.066;2023-05-10T04:08:56;7.00;90.90
23475;DHT22;11910;52.086;21.066;2023-05-10T04:11:25;7.00;90.90
23475;DHT22;11910;52.086;21.066;2023-05-10T04:13:50;7.00;91.10
23475;DHT22;11910;52.086;21.066;2023-05-10T04:16:16;7.20;91.30
23475;DHT22;11910;52.086;21.066;2023-05-10T04:18:42;7.10;91.30
23475;DHT22;11910;52.086;21.066;2023-05-10T04:21:14;7.30;90.90
23475;DHT22;11910;52.086;21.066;2023-05-10T04:23:40;7.40;90.80
23475;DHT22;11910;52.086;21.066;2023-05-10T04:26:06;7.40;91.60
23475;DHT22;11910;52.086;21.066;2023-05-10T04:28:31;7.60;90.10
23475;DHT22;11910;52.086;21.066;2023-05-10T04:31:04;7.80;88.60
23475;DHT22;11910;52.086;21.066;2023-05-10T04:33:30;8.00;87.70
23475;DHT22;11910;52.086;21.066;2023-05-10T04:35:56;8.20;86.90
23475;DHT22;11910;52.086;21.066;2023-05-10T04:38:22;8.40;83.70
23475;DHT22;11910;52.086;21.066;2023-05-10T04:40:47;8.60;82.40
23475;DHT22;11910;52.086;21.066;2023-05-10T04:43:13;8.80;81.70
23475;DHT22;11910;52.086;21.066;2023-05-10T04:45:39;8.90;81.00
23475;DHT22;11910;52.086;21.066;2023-05-10T04:48:05;9.10;79.30
23475;DHT22;11910;52.086;21.066;2023-05-10T04:50:31;9.30;81.20
23475;DHT22;11910;52.086;21.066;2023-05-10T04:52:57;9.40;78.10
23475;DHT22;11910;52.086;21.066;2023-05-10T04:55:23;9.50;77.70
23475;DHT22;11910;52.086;21.066;2023-05-10T04:57:49;9.50;76.10
23475;DHT22;11910;52.086;21.066;2023-05-10T05:00:15;9.60;74.00
23475;DHT22;11910;52.086;21.066;2023-05-10T05:02:44;9.70;74.70
23475;DHT22;11910;52.086;21.066;2023-05-10T05:05:11;9.80;73.90
23475;DHT22;11910;52.086;21.066;2023-05-10T05:07:37;9.90;74.50
23475;DHT22;11910;52.086;21.066;2023-05-10T05:10:05;10.00;74.90
23475;DHT22;11910;52.086;21.066;2023-05-10T05:12:31;10.10;73.00
23475;DHT22;11910;52.086;21.066;2023-05-10T05:14:57;10.20;72.50
23475;DHT22;11910;52.086;21.066;2023-05-10T05:17:22;10.30;73.30
23475;DHT22;11910;52.086;21.066;2023-05-10T05:19:48;10.40;72.20
23475;DHT22;11910;52.086;21.066;2023-05-10T05:22:14;10.40;71.10
23475;DHT22;11910;52.086;21.066;2023-05-10T05:24:39;10.50;73.80
23475;DHT22;11910;52.086;21.066;2023-05-10T05:27:05;10.60;71.20
23475;DHT22;11910;52.086;21.066;2023-05-10T05:29:31;10.70;72.30
23475;DHT22;11910;52.086;21.066;2023-05-10T05:31:57;10.80;72.50
23475;DHT22;11910;52.086;21.066;2023-05-10T05:34:23;10.90;69.80
23475;DHT22;11910;52.086;21.066;2023-05-10T05:36:49;11.00;69.50
23475;DHT22;11910;52.086;21.066;2023-05-10T05:39:15;11.10;69.60
23475;DHT22;11910;52.086;21.066;2023-05-10T05:41:41;11.10;70.10
23475;DHT22;11910;52.086;21.066;2023-05-10T05:44:07;11.20;70.40
23475;DHT22;11910;52.086;21.066;2023-05-10T05:46:32;11.40;70.20
23475;DHT22;11910;52.086;21.066;2023-05-10T05:48:58;11.50;70.50
23475;DHT22;11910;52.086;21.066;2023-05-10T05:51:23;11.60;69.70
23475;DHT22;11910;52.086;21.066;2023-05-10T05:53:49;11.70;70.50
23475;DHT22;11910;52.086;21.066;2023-05-10T05:56:14;11.80;68.90
23475;DHT22;11910;52.086;21.066;2023-05-10T05:58:40;11.90;69.00
23475;DHT22;11910;52.086;21.066;2023-05-10T06:01:06;12.00;68.60
23475;DHT22;11910;52.086;21.066;2023-05-10T06:03:31;12.10;68.90
23475;DHT22;11910;52.086;21.066;2023-05-10T06:05:58;12.30;68.40
23475;DHT22;11910;52.086;21.066;2023-05-10T06:08:23;12.40;67.50
23475;DHT22;11910;52.086;21.066;2023-05-10T06:10:49;12.50;68.00
23475;DHT22;11910;52.086;21.066;2023-05-10T06:13:14;12.70;66.80
23475;DHT22;11910;52.086;21.066;2023-05-10T06:15:40;12.80;66.80
23475;DHT22;11910;52.086;21.066;2023-05-10T06:18:06;13.00;65.70
23475;DHT22;11910;52.086;21.066;2023-05-10T06:20:32;13.10;66.80
23475;DHT22;11910;52.086;21.066;2023-05-10T06:22:57;13.20;69.50
23475;DHT22;11910;52.086;21.066;2023-05-10T06:25:23;13.40;65.50
23475;DHT22;11910;52.086;21.066;2023-05-10T06:27:49;13.50;64.60
23475;DHT22;11910;52.086;21.066;2023-05-10T06:30:15;13.60;64.20
23475;DHT22;11910;52.086;21.066;2023-05-10T06:32:41;13.70;62.70
23475;DHT22;11910;52.086;21.066;2023-05-10T06:35:09;13.80;65.00
23475;DHT22;11910;52.086;21.066;2023-05-10T06:37:34;13.90;61.80
23475;DHT22;11910;52.086;21.066;2023-05-10T06:40:00;13.90;62.50
23475;DHT22;11910;52.086;21.066;2023-05-10T06:42:26;14.00;65.00
23475;DHT22;11910;52.086;21.066;2023-05-10T06:44:52;14.10;62.00
23475;DHT22;11910;52.086;21.066;2023-05-10T06:47:18;14.10;61.70
23475;DHT22;11910;52.086;21.066;2023-05-10T06:49:44;14.20;62.80
23475;DHT22;11910;52.086;21.066;2023-05-10T06:52:09;14.30;61.60
23475;DHT22;11910;52.086;21.066;2023-05-10T06:54:35;14.40;61.10
23475;DHT22;11910;52.086;21.066;2023-05-10T06:57:00;14.50;58.70
23475;DHT22;11910;52.086;21.066;2023-05-10T06:59:28;14.60;59.30
23475;DHT22;11910;52.086;21.066;2023-05-10T07:01:53;14.70;58.60
23475;DHT22;11910;52.086;21.066;2023-05-10T07:04:19;14.60;57.70
23475;DHT22;11910;52.086;21.066;2023-05-10T07:06:45;14.70;59.00
23475;DHT22;11910;52.086;21.066;2023-05-10T07:09:11;14.80;57.70
23475;DHT22;11910;52.086;21.066;2023-05-10T07:11:38;14.90;57.10
23475;DHT22;11910;52.086;21.066;2023-05-10T07:14:04;15.20;56.20
23475;DHT22;11910;52.086;21.066;2023-05-10T07:16:30;15.40;56.20
23475;DHT22;11910;52.086;21.066;2023-05-10T07:18:56;15.50;55.50
23475;DHT22;11910;52.086;21.066;2023-05-10T07:21:21;15.70;55.70
23475;DHT22;11910;52.086;21.066;2023-05-10T07:23:49;15.70;55.10
23475;DHT22;11910;52.086;21.066;2023-05-10T07:26:15;15.80;55.10
23475;DHT22;11910;52.086;21.066;2023-05-10T07:28:41;15.90;53.80
23475;DHT22;11910;52.086;21.066;2023-05-10T07:31:06;16.00;51.90
23475;DHT22;11910;52.086;21.066;2023-05-10T07:33:32;16.10;53.70
23475;DHT22;11910;52.086;21.066;2023-05-10T07:35:57;16.40;56.00
23475;DHT22;11910;52.086;21.066;2023-05-10T07:38:23;16.70;54.10
23475;DHT22;11910;52.086;21.066;2023-05-10T07:40:49;16.90;52.10
23475;DHT22;11910;52.086;21.066;2023-05-10T07:43:14;17.00;48.70
23475;DHT22;11910;52.086;21.066;2023-05-10T07:45:40;17.10;49.70
23475;DHT22;11910;52.086;21.066;2023-05-10T07:48:05;17.30;50.20
23475;DHT22;11910;52.086;21.066;2023-05-10T07:50:31;17.60;50.30
23475;DHT22;11910;52.086;21.066;2023-05-10T07:52:56;17.50;46.70
23475;DHT22;11910;52.086;21.066;2023-05-10T07:55:22;17.50;48.40
23475;DHT22;11910;52.086;21.066;2023-05-10T07:57:48;17.60;46.90
23475;DHT22;11910;52.086;21.066;2023-05-10T08:00:17;17.70;46.70
23475;DHT22;11910;52.086;21.066;2023-05-10T08:02:44;17.80;45.50
23475;DHT22;11910;52.086;21.066;2023-05-10T08:05:09;17.90;44.40
23475;DHT22;11910;52.086;21.066;2023-05-10T08:07:35;18.00;43.70
23475;DHT22;11910;52.086;21.066;2023-05-10T08:10:02;18.20;44.20
23475;DHT22;11910;52.086;21.066;2023-05-10T08:12:31;18.60;45.60
23475;DHT22;11910;52.086;21.066;2023-05-10T08:14:57;18.60;44.70
23475;DHT22;11910;52.086;21.066;2023-05-10T08:17:22;18.80;45.50
23475;DHT22;11910;52.086;21.066;2023-05-10T08:19:48;18.90;45.20
23475;DHT22;11910;52.086;21.066;2023-05-10T08:22:14;19.20;46.40
23475;DHT22;11910;52.086;21.066;2023-05-10T08:24:39;19.30;44.60
23475;DHT22;11910;52.086;21.066;2023-05-10T08:27:08;19.10;42.70
23475;DHT22;11910;52.086;21.066;2023-05-10T08:29:34;19.10;44.70
23475;DHT22;11910;52.086;21.066;2023-05-10T08:31:59;19.20;44.80
23475;DHT22;11910;52.086;21.066;2023-05-10T08:34:26;19.30;44.80
23475;DHT22;11910;52.086;21.066;2023-05-10T08:36:52;19.40;44.60
23475;DHT22;11910;52.086;21.066;2023-05-10T08:39:18;19.20;42.50
23475;DHT22;11910;52.086;21.066;2023-05-10T08:41:45;19.10;42.70
23475;DHT22;11910;52.086;21.066;2023-05-10T08:44:12;19.10;42.50
23475;DHT22;11910;52.086;21.066;2023-05-10T08:46:41;19.10;43.40
23475;DHT22;11910;52.086;21.066;2023-05-10T08:49:16;19.20;45.10
23475;DHT22;11910;52.086;21.066;2023-05-10T08:51:49;19.10;44.90
23475;DHT22;11910;52.086;21.066;2023-05-10T08:54:16;19.00;43.30
23475;DHT22;11910;52.086;21.066;2023-05-10T08:56:42;19.00;43.00
23475;DHT22;11910;52.086;21.066;2023-05-10T08:59:09;19.10;43.50
23475;DHT22;11910;52.086;21.066;2023-05-10T09:01:36;19.10;43.50
23475;DHT22;11910;52.086;21.066;2023-05-10T09:04:02;19.20;41.90
23475;DHT22;11910;52.086;21.066;2023-05-10T09:06:28;19.20;44.20
23475;DHT22;11910;52.086;21.066;2023-05-10T09:08:54;19.30;44.00
23475;DHT22;11910;52.086;21.066;2023-05-10T09:11:20;19.40;43.40
23475;DHT22;11910;52.086;21.066;2023-05-10T09:13:48;19.60;44.90
23475;DHT22;11910;52.086;21.066;2023-05-10T09:16:13;19.70;43.80
23475;DHT22;11910;52.086;21.066;2023-05-10T09:18:39;19.80;43.70
23475;DHT22;11910;52.086;21.066;2023-05-10T09:21:05;19.80;44.50
23475;DHT22;11910;52.086;21.066;2023-05-10T09:23:30;19.90;43.20
23475;DHT22;11910;52.086;21.066;2023-05-10T09:26:07;20.10;46.20
23475;DHT22;11910;52.086;21.066;2023-05-10T09:28:34;20.20;44.50
23475;DHT22;11910;52.086;21.066;2023-05-10T09:31:00;20.30;43.00
23475;DHT22;11910;52.086;21.066;2023-05-10T09:33:25;20.30;42.70
23475;DHT22;11910;52.086;21.066;2023-05-10T09:35:52;20.30;43.30
23475;DHT22;11910;52.086;21.066;2023-05-10T09:38:17;20.40;44.60
23475;DHT22;11910;52.086;21.066;2023-05-10T09:40:52;20.40;44.60
23475;DHT22;11910;52.086;21.066;2023-05-10T09:43:20;20.30;40.80
23475;DHT22;11910;52.086;21.066;2023-05-10T09:45:48;20.30;41.40
23475;DHT22;11910;52.086;21.066;2023-05-10T09:48:17;20.20;41.00
23475;DHT22;11910;52.086;21.066;2023-05-10T09:50:42;20.10;41.20
23475;DHT22;11910;52.086;21.066;2023-05-10T09:53:08;20.00;40.40
23475;DHT22;11910;52.086;21.066;2023-05-10T09:55:41;20.00;41.10
23475;DHT22;11910;52.086;21.066;2023-05-10T09:58:09;20.10;41.00
23475;DHT22;11910;52.086;21.066;2023-05-10T10:00:40;20.20;42.80
23475;DHT22;11910;52.086;21.066;2023-05-10T10:03:07;20.20;40.60
23475;DHT22;11910;52.086;21.066;2023-05-10T10:05:40;20.10;40.30
23475;DHT22;11910;52.086;21.066;2023-05-10T10:08:08;20.10;41.30
23475;DHT22;11910;52.086;21.066;2023-05-10T10:10:34;20.10;41.30
23475;DHT22;11910;52.086;21.066;2023-05-10T10:13:00;20.10;41.40
23475;DHT22;11910;52.086;21.066;2023-05-10T10:15:25;20.20;41.30
23475;DHT22;11910;52.086;21.066;2023-05-10T10:17:52;20.10;41.00
23475;DHT22;11910;52.086;21.066;2023-05-10T10:20:20;20.30;42.20
23475;DHT22;11910;52.086;21.066;2023-05-10T10:22:46;20.30;42.00
23475;DHT22;11910;52.086;21.066;2023-05-10T10:25:16;20.50;42.20
23475;DHT22;11910;52.086;21.066;2023-05-10T10:36:09;20.50;39.40
23475;DHT22;11910;52.086;21.066;2023-05-10T10:38:54;20.50;41.00
23475;DHT22;11910;52.086;21.066;2023-05-10T10:41:51;20.40;41.20
23475;DHT22;11910;52.086;21.066;2023-05-10T10:52:26;20.50;42.20
23475;DHT22;11910;52.086;21.066;2023-05-10T11:00:29;20.50;41.30
23475;DHT22;11910;52.086;21.066;2023-05-10T11:05:48;20.50;43.00
23475;DHT22;11910;52.086;21.066;2023-05-10T11:08:30;20.60;42.20
23475;DHT22;11910;52.086;21.066;2023-05-10T11:15:55;20.90;42.00
23475;DHT22;11910;52.086;21.066;2023-05-10T11:18:27;21.00;43.20
23475;DHT22;11910;52.086;21.066;2023-05-10T11:20:58;21.20;44.00
23475;DHT22;11910;52.086;21.066;2023-05-10T11:23:55;20.90;41.80
23475;DHT22;11910;52.086;21.066;2023-05-10T11:26:23;20.90;41.70
23475;DHT22;11910;52.086;21.066;2023-05-10T11:28:54;20.90;41.80
23475;DHT22;11910;52.086;21.066;2023-05-10T11:31:21;20.90;41.00
23475;DHT22;11910;52.086;21.066;2023-05-10T11:33:49;21.00;42.70
23475;DHT22;11910;52.086;21.066;2023-05-10T11:36:20;21.20;42.10
23475;DHT22;11910;52.086;21.066;2023-05-10T11:38:47;21.20;42.00
23475;DHT22;11910;52.086;21.066;2023-05-10T11:41:17;21.20;40.80
23475;DHT22;11910;52.086;21.066;2023-05-10T11:43:46;21.20;40.40
23475;DHT22;11910;52.086;21.066;2023-05-10T11:46:13;21.20;41.80
23475;DHT22;11910;52.086;21.066;2023-05-10T11:48:39;21.30;40.80
23475;DHT22;11910;52.086;21.066;2023-05-10T11:51:10;21.30;41.40
23475;DHT22;11910;52.086;21.066;2023-05-10T11:53:36;21.40;42.10
23475;DHT22;11910;52.086;21.066;2023-05-10T11:56:07;21.50;42.00
23475;DHT22;11910;52.086;21.066;2023-05-10T11:58:33;21.30;40.50
23475;DHT22;11910;52.086;21.066;2023-05-10T12:00:59;21.40;41.80
23475;DHT22;11910;52.086;21.066;2023-05-10T12:03:28;21.50;42.20
23475;DHT22;11910;52.086;21.066;2023-05-10T12:05:58;21.50;39.90
23475;DHT22;11910;52.086;21.066;2023-05-10T12:08:25;21.50;40.50
23475;DHT22;11910;52.086;21.066;2023-05-10T12:10:52;21.50;40.20
23475;DHT22;11910;52.086;21.066;2023-05-10T12:13:20;21.40;40.20
23475;DHT22;11910;52.086;21.066;2023-05-10T12:15:46;21.40;40.30
23475;DHT22;11910;52.086;21.066;2023-05-10T12:18:12;21.30;40.10
23475;DHT22;11910;52.086;21.066;2023-05-10T12:20:39;21.40;41.00
23475;DHT22;11910;52.086;21.066;2023-05-10T12:23:05;21.30;39.50
23475;DHT22;11910;52.086;21.066;2023-05-10T12:25:32;21.50;41.10
23475;DHT22;11910;52.086;21.066;2023-05-10T12:27:59;21.60;39.30
23475;DHT22;11910;52.086;21.066;2023-05-10T12:30:30;21.70;40.20
23475;DHT22;11910;52.086;21.066;2023-05-10T12:33:01;21.80;38.90
23475;DHT22;11910;52.086;21.066;2023-05-10T12:35:30;21.80;40.90
23475;DHT22;11910;52.086;21.066;2023-05-10T12:37:56;21.90;40.00
23475;DHT22;11910;52.086;21.066;2023-05-10T12:40:21;22.00;39.30
23475;DHT22;11910;52.086;21.066;2023-05-10T12:42:47;22.20;40.70
23475;DHT22;11910;52.086;21.066;2023-05-10T12:45:14;22.40;39.70
23475;DHT22;11910;52.086;21.066;2023-05-10T12:47:40;22.30;38.80
23475;DHT22;11910;52.086;21.066;2023-05-10T12:50:06;22.40;39.30
23475;DHT22;11910;52.086;21.066;2023-05-10T12:52:32;22.40;39.40
23475;DHT22;11910;52.086;21.066;2023-05-10T12:54:58;22.50;39.90
23475;DHT22;11910;52.086;21.066;2023-05-10T12:57:24;22.60;38.70
23475;DHT22;11910;52.086;21.066;2023-05-10T12:59:50;22.80;38.60
23475;DHT22;11910;52.086;21.066;2023-05-10T13:02:16;23.20;39.40
23475;DHT22;11910;52.086;21.066;2023-05-10T13:04:44;23.40;39.00
23475;DHT22;11910;52.086;21.066;2023-05-10T13:07:10;23.70;38.30
23475;DHT22;11910;52.086;21.066;2023-05-10T13:09:35;23.90;38.50
23475;DHT22;11910;52.086;21.066;2023-05-10T13:12:01;24.20;37.80
23475;DHT22;11910;52.086;21.066;2023-05-10T13:14:27;24.30;37.60
23475;DHT22;11910;52.086;21.066;2023-05-10T13:16:53;24.60;36.80
23475;DHT22;11910;52.086;21.066;2023-05-10T13:19:19;24.80;36.60
23475;DHT22;11910;52.086;21.066;2023-05-10T13:21:45;25.10;37.70
23475;DHT22;11910;52.086;21.066;2023-05-10T13:24:11;25.00;35.40
23475;DHT22;11910;52.086;21.066;2023-05-10T13:26:39;24.80;35.50
23475;DHT22;11910;52.086;21.066;2023-05-10T13:29:06;25.00;36.30
23475;DHT22;11910;52.086;21.066;2023-05-10T13:31:31;25.20;36.00
23475;DHT22;11910;52.086;21.066;2023-05-10T13:33:57;25.50;35.60
23475;DHT22;11910;52.086;21.066;2023-05-10T13:36:22;25.50;35.10
23475;DHT22;11910;52.086;21.066;2023-05-10T13:38:48;25.60;34.70
23475;DHT22;11910;52.086;21.066;2023-05-10T13:41:14;25.60;35.20
23475;DHT22;11910;52.086;21.066;2023-05-10T13:43:39;25.70;35.70
23475;DHT22;11910;52.086;21.066;2023-05-10T13:46:05;25.90;34.50
23475;DHT22;11910;52.086;21.066;2023-05-10T13:48:31;26.00;34.80
23475;DHT22;11910;52.086;21.066;2023-05-10T13:50:56;26.20;35.70
23475;DHT22;11910;52.086;21.066;2023-05-10T13:53:22;26.40;34.70
23475;DHT22;11910;52.086;21.066;2023-05-10T13:55:48;26.80;34.30
23475;DHT22;11910;52.086;21.066;2023-05-10T13:58:17;27.30;34.50
23475;DHT22;11910;52.086;21.066;2023-05-10T14:00:50;27.60;34.00
23475;DHT22;11910;52.086;21.066;2023-05-10T14:03:15;27.60;34.00
23475;DHT22;11910;52.086;21.066;2023-05-10T14:05:42;27.80;33.60
23475;DHT22;11910;52.086;21.066;2023-05-10T14:08:07;27.50;33.50
23475;DHT22;11910;52.086;21.066;2023-05-10T14:10:35;27.20;33.30
23475;DHT22;11910;52.086;21.066;2023-05-10T14:13:00;27.30;33.10
23475;DHT22;11910;52.086;21.066;2023-05-10T14:15:26;27.70;33.30
23475;DHT22;11910;52.086;21.066;2023-05-10T14:17:52;27.90;32.50
23475;DHT22;11910;52.086;21.066;2023-05-10T14:20:17;28.10;33.20
23475;DHT22;11910;52.086;21.066;2023-05-10T14:22:43;28.20;32.80
23475;DHT22;11910;52.086;21.066;2023-05-10T14:25:08;28.40;32.30
23475;DHT22;11910;52.086;21.066;2023-05-10T14:27:34;28.60;32.80
23475;DHT22;11910;52.086;21.066;2023-05-10T14:30:00;28.40;33.20
23475;DHT22;11910;52.086;21.066;2023-05-10T14:32:25;28.60;33.00
23475;DHT22;11910;52.086;21.066;2023-05-10T14:34:52;28.90;32.30
23475;DHT22;11910;52.086;21.066;2023-05-10T14:37:18;29.00;32.30
23475;DHT22;11910;52.086;21.066;2023-05-10T14:39:43;29.00;31.80
23475;DHT22;11910;52.086;21.066;2023-05-10T14:42:09;29.10;31.40
23475;DHT22;11910;52.086;21.066;2023-05-10T14:44:34;29.20;31.50
23475;DHT22;11910;52.086;21.066;2023-05-10T14:47:00;29.60;32.40
23475;DHT22;11910;52.086;21.066;2023-05-10T14:49:26;29.20;30.90
23475;DHT22;11910;52.086;21.066;2023-05-10T14:51:51;29.30;31.20
23475;DHT22;11910;52.086;21.066;2023-05-10T14:54:17;29.00;31.30
23475;DHT22;11910;52.086;21.066;2023-05-10T14:56:43;28.70;30.70
23475;DHT22;11910;52.086;21.066;2023-05-10T14:59:09;28.40;31.50
23475;DHT22;11910;52.086;21.066;2023-05-10T15:01:34;28.70;31.60
23475;DHT22;11910;52.086;21.066;2023-05-10T15:04:03;29.10;32.20
23475;DHT22;11910;52.086;21.066;2023-05-10T15:06:33;29.40;31.80
23475;DHT22;11910;52.086;21.066;2023-05-10T15:09:00;29.40;31.00
23475;DHT22;11910;52.086;21.066;2023-05-10T15:11:26;29.10;31.20
23475;DHT22;11910;52.086;21.066;2023-05-10T15:13:52;29.40;31.40
23475;DHT22;11910;52.086;21.066;2023-05-10T15:16:18;29.30;30.80
23475;DHT22;11910;52.086;21.066;2023-05-10T15:18:44;29.20;31.00
23475;DHT22;11910;52.086;21.066;2023-05-10T15:21:09;29.10;30.80
23475;DHT22;11910;52.086;21.066;2023-05-10T15:23:35;29.00;30.60
23475;DHT22;11910;52.086;21.066;2023-05-10T15:26:01;28.80;30.40
23475;DHT22;11910;52.086;21.066;2023-05-10T15:28:26;28.90;30.80
23475;DHT22;11910;52.086;21.066;2023-05-10T15:30:52;28.90;30.80
23475;DHT22;11910;52.086;21.066;2023-05-10T15:33:17;28.70;30.80
23475;DHT22;11910;52.086;21.066;2023-05-10T15:35:43;28.90;30.50
23475;DHT22;11910;52.086;21.066;2023-05-10T15:38:09;28.70;30.90
23475;DHT22;11910;52.086;21.066;2023-05-10T15:40:35;28.70;31.30
23475;DHT22;11910;52.086;21.066;2023-05-10T15:43:01;28.40;30.30
23475;DHT22;11910;52.086;21.066;2023-05-10T15:45:26;27.90;31.00
23475;DHT22;11910;52.086;21.066;2023-05-10T15:47:52;27.30;30.80
23475;DHT22;11910;52.086;21.066;2023-05-10T15:50:18;27.00;31.30
23475;DHT22;11910;52.086;21.066;2023-05-10T15:52:44;27.20;32.30
23475;DHT22;11910;52.086;21.066;2023-05-10T15:55:09;27.20;31.30